createdAt,value
2024-02-19T00:00:11.295Z,-4.25
2024-02-19T00:03:16.854Z,-4.07
2024-02-19T00:12:46.184Z,-4.71
2024-02-19T00:15:18.619Z,-4.81
2024-02-19T00:18:17.597Z,-4.63
2024-02-19T00:20:52.233Z,-4.27
2024-02-19T00:23:19.779Z,-4.29
2024-02-19T00:25:47.298Z,-4.20
2024-02-19T00:28:16.652Z,-4.22
2024-02-19T00:34:13.033Z,-4.39
2024-02-19T00:37:13.245Z,-4.25
2024-02-19T00:43:07.249Z,-4.55
2024-02-19T00:45:35.096Z,-4.54
2024-02-19T00:48:03.013Z,-4.63
2024-02-19T00:50:30.654Z,-4.34
2024-02-19T00:53:14.816Z,-4.21
2024-02-19T00:55:42.215Z,-4.21
2024-02-19T00:58:16.427Z,-4.12
2024-02-19T01:00:44.303Z,-4.15
2024-02-19T01:03:15.709Z,-3.91
2024-02-19T01:05:43.191Z,-4.18
2024-02-19T01:08:12.625Z,-4.59
2024-02-19T01:10:44.207Z,-4.43
2024-02-19T01:13:14.809Z,-4.20
2024-02-19T01:15:46.140Z,-4.23
2024-02-19T01:18:13.899Z,-4.33
2024-02-19T01:20:46.089Z,-4.32
2024-02-19T01:23:14.007Z,-4.21
2024-02-19T01:26:06.008Z,-4.10
2024-02-19T01:28:34.013Z,-4.34
2024-02-19T01:31:02.336Z,-4.18
2024-02-19T01:33:29.689Z,-4.24
2024-02-19T01:35:57.548Z,-4.62
2024-02-19T01:42:01.241Z,-4.60
2024-02-19T01:44:28.991Z,-4.51
2024-02-19T01:46:57.508Z,-4.38
2024-02-19T01:49:25.588Z,-4.36
2024-02-19T01:51:53.832Z,-4.31
2024-02-19T01:57:51.314Z,-4.91
2024-02-19T02:06:47.549Z,-4.61
2024-02-19T02:09:15.503Z,-4.51
2024-02-19T02:11:45.031Z,-4.69
2024-02-19T02:14:12.850Z,-4.58
2024-02-19T02:17:09.735Z,-4.36
2024-02-19T02:19:38.026Z,-4.69
2024-02-19T02:22:06.150Z,-4.40
2024-02-19T02:24:33.729Z,-4.55
2024-02-19T02:27:12.242Z,-4.44
2024-02-19T02:30:27.836Z,-4.50
2024-02-19T02:33:00.374Z,-4.59
2024-02-19T02:35:27.833Z,-4.46
2024-02-19T02:41:33.206Z,-4.83
2024-02-19T02:44:01.514Z,-4.80
2024-02-19T02:46:29.032Z,-4.99
2024-02-19T02:49:32.992Z,-5.07
2024-02-19T02:53:00.626Z,-4.67
2024-02-19T02:55:28.458Z,-4.74
2024-02-19T03:01:29.905Z,-5.01
2024-02-19T03:04:24.585Z,-5.07
2024-02-19T03:06:52.513Z,-5.31
2024-02-19T03:09:20.930Z,-5.14
2024-02-19T03:11:48.608Z,-5.34
2024-02-19T03:14:51.862Z,-5.10
2024-02-19T03:17:25.866Z,-5.12
2024-02-19T03:23:21.331Z,-5.71
2024-02-19T03:25:50.781Z,-5.76
2024-02-19T03:28:25.096Z,-5.73
2024-02-19T03:30:53.059Z,-5.56
2024-02-19T03:33:21.842Z,-5.73
2024-02-19T03:40:16.869Z,-5.60
2024-02-19T03:43:02.228Z,-5.26
2024-02-19T03:45:34.577Z,-5.39
2024-02-19T03:48:39.003Z,-5.06
2024-02-19T03:51:09.196Z,-5.01
2024-02-19T03:53:36.976Z,-5.07
2024-02-19T03:56:05.779Z,-5.38
2024-02-19T03:58:36.675Z,-5.56
2024-02-19T04:01:18.228Z,-5.85
2024-02-19T04:03:48.572Z,-5.63
2024-02-19T04:13:05.037Z,-5.74
2024-02-19T04:15:32.502Z,-5.81
2024-02-19T04:17:59.789Z,-5.82
2024-02-19T04:20:29.708Z,-5.82
2024-02-19T04:22:57.218Z,-6.05
2024-02-19T04:25:25.434Z,-5.74
2024-02-19T04:27:55.823Z,-5.47
2024-02-19T04:30:22.976Z,-5.43
2024-02-19T04:32:50.766Z,-5.37
2024-02-19T04:35:18.256Z,-5.52
2024-02-19T04:37:45.435Z,-5.58
2024-02-19T04:40:16.007Z,-5.78
2024-02-19T04:42:43.589Z,-5.85
2024-02-19T04:45:11.191Z,-5.97
2024-02-19T04:47:38.363Z,-5.42
2024-02-19T04:50:39.850Z,-5.01
2024-02-19T04:53:07.484Z,-4.95
2024-02-19T04:55:35.120Z,-4.72
2024-02-19T04:58:50.784Z,-4.85
2024-02-19T05:01:18.119Z,-4.93
2024-02-19T05:03:45.761Z,-4.66
2024-02-19T05:06:13.104Z,-4.53
2024-02-19T05:08:40.398Z,-4.93
2024-02-19T05:11:09.828Z,-4.73
2024-02-19T05:13:37.860Z,-4.78
2024-02-19T05:16:07.858Z,-4.83
2024-02-19T05:18:35.363Z,-4.69
2024-02-19T05:21:07.639Z,-4.91
2024-02-19T05:23:34.942Z,-4.85
2024-02-19T05:26:04.638Z,-4.70
2024-02-19T05:28:36.237Z,-4.51
2024-02-19T05:31:04.916Z,-4.88
2024-02-19T05:33:32.364Z,-5.06
2024-02-19T05:35:59.679Z,-4.96
2024-02-19T05:38:33.588Z,-4.71
2024-02-19T05:41:01.876Z,-4.78
2024-02-19T05:43:30.268Z,-4.87
2024-02-19T05:45:57.718Z,-5.10
2024-02-19T05:48:42.630Z,-5.14
2024-02-19T05:51:13.455Z,-5.37
2024-02-19T05:53:42.317Z,-5.34
2024-02-19T05:56:10.857Z,-5.23
2024-02-19T05:58:43.963Z,-5.09
2024-02-19T06:01:14.716Z,-4.88
2024-02-19T06:03:42.362Z,-5.07
2024-02-19T06:06:09.864Z,-5.04
2024-02-19T06:08:37.195Z,-4.90
2024-02-19T06:11:05.181Z,-5.07
2024-02-19T06:13:32.545Z,-4.87
2024-02-19T06:16:00.470Z,-4.69
2024-02-19T06:18:28.100Z,-4.67
2024-02-19T06:20:55.423Z,-4.50
2024-02-19T06:23:24.673Z,-4.69
2024-02-19T06:25:52.245Z,-4.80
2024-02-19T06:28:19.810Z,-4.80
2024-02-19T06:30:47.429Z,-4.98
2024-02-19T06:33:19.720Z,-4.85
2024-02-19T06:35:47.330Z,-4.85
2024-02-19T06:38:14.652Z,-4.63
2024-02-19T06:40:42.096Z,-4.43
2024-02-19T06:43:17.512Z,-4.21
2024-02-19T06:45:45.515Z,-4.29
2024-02-19T06:48:12.883Z,-4.32
2024-02-19T06:50:41.071Z,-4.46
2024-02-19T07:06:20.278Z,-4.26
2024-02-19T07:08:48.612Z,-3.98
2024-02-19T07:11:16.179Z,-4.17
2024-02-19T07:13:45.287Z,-4.50
2024-02-19T07:16:12.983Z,-4.41
2024-02-19T07:22:11.230Z,-4.41
2024-02-19T07:28:07.455Z,-3.89
2024-02-19T07:30:37.137Z,-3.90
2024-02-19T07:33:04.916Z,-3.71
2024-02-19T07:35:35.732Z,-3.37
2024-02-19T07:38:03.317Z,-3.33
2024-02-19T07:40:33.384Z,-3.10
2024-02-19T07:43:02.897Z,-2.79
2024-02-19T07:45:30.479Z,-2.80
2024-02-19T07:51:25.051Z,-2.83
2024-02-19T08:19:09.510Z,-3.19
2024-02-19T08:21:41.522Z,-3.26
2024-02-19T08:24:09.235Z,-3.48
2024-02-19T08:33:30.951Z,-2.97
2024-02-19T08:35:59.038Z,-3.11
2024-02-19T08:38:58.524Z,-3.08
2024-02-19T08:41:26.246Z,-3.21
2024-02-19T08:44:39.500Z,-3.15
2024-02-19T08:47:09.450Z,-3.11
2024-02-19T08:49:39.980Z,-3.24
2024-02-19T08:52:08.848Z,-3.15
2024-02-19T08:54:36.422Z,-3.00
2024-02-19T08:57:04.634Z,-2.99
2024-02-19T08:59:31.974Z,-2.91
2024-02-19T09:02:05.331Z,-2.87
2024-02-19T09:04:32.848Z,-3.02
2024-02-19T09:07:00.322Z,-2.98
2024-02-19T09:09:28.098Z,-2.64
2024-02-19T09:11:55.579Z,-2.41
2024-02-19T09:14:23.975Z,-2.51
2024-02-19T09:16:51.331Z,-2.46
2024-02-19T09:19:19.936Z,-2.50
2024-02-19T09:21:47.565Z,-2.02
2024-02-19T09:24:15.250Z,-1.68
2024-02-19T09:26:43.521Z,-1.75
2024-02-19T09:29:11.092Z,-2.19
2024-02-19T09:31:38.453Z,-2.10
2024-02-19T09:34:08.698Z,-1.81
2024-02-19T09:36:36.156Z,-1.72
2024-02-19T10:41:55.324Z,-2.31
2024-02-19T10:47:23.668Z,-2.48
2024-02-19T10:50:00.085Z,-2.04
2024-02-19T10:52:28.364Z,-2.13
2024-02-19T10:55:10.056Z,-2.37
2024-02-19T10:57:53.470Z,-2.20
2024-02-19T11:00:28.192Z,-2.17
2024-02-19T11:03:09.346Z,-1.94
2024-02-19T11:05:54.251Z,-2.07
2024-02-19T11:08:23.955Z,-1.88
2024-02-19T11:10:55.941Z,-1.87
2024-02-19T11:14:22.813Z,-1.78
2024-02-19T11:16:51.623Z,-2.09
2024-02-19T11:19:19.893Z,-1.95
2024-02-19T11:21:47.788Z,-2.57
2024-02-19T11:24:15.118Z,-2.90
2024-02-19T11:26:43.741Z,-2.75
2024-02-19T11:29:15.654Z,-2.61
2024-02-19T11:31:43.602Z,-2.56
2024-02-19T11:34:19.594Z,-2.24
2024-02-19T11:36:47.997Z,-2.37
2024-02-19T11:39:15.491Z,-1.95
2024-02-19T11:41:45.141Z,-2.20
2024-02-19T11:44:19.829Z,-2.37
2024-02-19T11:49:47.447Z,-2.78
2024-02-19T11:52:15.867Z,-2.76
2024-02-19T11:54:43.612Z,-2.63
2024-02-19T11:57:20.402Z,-2.97
2024-02-19T11:59:47.805Z,-3.01
2024-02-19T12:02:15.589Z,-3.15
2024-02-19T12:04:43.722Z,-3.23
2024-02-19T12:07:26.476Z,-3.14
2024-02-19T12:09:54.317Z,-3.23
2024-02-19T12:12:25.528Z,-2.87
2024-02-19T12:15:01.301Z,-2.91
2024-02-19T12:17:54.168Z,-2.60
2024-02-19T12:20:27.320Z,-3.03
2024-02-19T12:23:17.482Z,-3.58
2024-02-19T12:25:53.119Z,-3.62
2024-02-19T12:28:20.740Z,-3.45
2024-02-19T12:30:49.201Z,-3.18
2024-02-19T12:33:18.496Z,-3.31
2024-02-19T12:35:52.833Z,-3.42
2024-02-19T12:38:21.179Z,-3.45
2024-02-19T13:38:12.046Z,-3.22
2024-02-19T13:44:08.287Z,-3.27
2024-02-19T13:46:47.243Z,-3.47
2024-02-19T13:49:32.458Z,-3.60
2024-02-19T13:52:00.070Z,-3.73
2024-02-19T13:54:27.495Z,-3.42
2024-02-19T13:56:56.755Z,-3.07
2024-02-19T13:59:25.480Z,-3.24
2024-02-19T14:01:55.840Z,-3.33
2024-02-19T14:04:24.268Z,-3.35
2024-02-19T14:06:51.854Z,-3.23
2024-02-19T14:09:24.050Z,-3.50
2024-02-19T14:11:52.250Z,-3.92
2024-02-19T14:14:19.869Z,-3.79
2024-02-19T14:16:47.292Z,-3.64
2024-02-19T14:19:17.368Z,-3.67
2024-02-19T14:21:45.334Z,-3.58
2024-02-19T14:24:12.818Z,-3.53
2024-02-19T14:27:40.129Z,-3.50
2024-02-19T14:30:10.006Z,-3.66
2024-02-19T14:32:37.752Z,-3.50
2024-02-19T14:35:07.349Z,-3.50
2024-02-19T14:37:39.070Z,-3.49
2024-02-19T14:40:10.643Z,-3.23
2024-02-19T14:42:38.578Z,-3.48
2024-02-19T14:45:11.579Z,-3.55
2024-02-19T14:47:45.019Z,-3.57
2024-02-19T14:50:18.750Z,-4.03
2024-02-19T14:52:47.284Z,-3.72
2024-02-19T14:55:19.471Z,-3.65
2024-02-19T15:01:32.173Z,-3.37
2024-02-19T15:04:45.587Z,-3.11
2024-02-19T15:14:08.329Z,-2.62
2024-02-19T15:16:35.769Z,-2.96
2024-02-19T15:19:04.025Z,-2.90
2024-02-19T15:21:35.989Z,-3.02
2024-02-19T15:24:08.931Z,-3.38
2024-02-19T15:26:36.555Z,-3.69
2024-02-19T15:29:04.167Z,-3.64
2024-02-19T15:31:31.590Z,-3.68
2024-02-19T15:34:00.136Z,-3.76
2024-02-19T15:36:27.575Z,-3.66
2024-02-19T15:38:54.941Z,-3.50
2024-02-19T15:41:25.289Z,-3.59
2024-02-19T15:43:55.627Z,-3.94
2024-02-19T15:46:27.261Z,-3.91
2024-02-19T15:48:54.973Z,-3.75
2024-02-19T15:51:22.420Z,-3.86
2024-02-19T15:53:56.134Z,-4.00
2024-02-19T15:56:23.708Z,-3.51
2024-02-19T16:02:18.002Z,-3.20
2024-02-19T16:04:45.635Z,-3.19
2024-02-19T16:07:13.530Z,-3.48
2024-02-19T16:09:41.178Z,-3.50
2024-02-19T16:12:08.887Z,-3.53
2024-02-19T16:14:38.603Z,-3.34
2024-02-19T16:17:06.500Z,-3.21
2024-02-19T16:19:34.032Z,-3.20
2024-02-19T16:22:01.768Z,-3.16
2024-02-19T16:24:35.687Z,-3.12
2024-02-19T16:27:05.286Z,-3.18
2024-02-19T16:29:32.832Z,-3.38
2024-02-19T16:32:00.366Z,-3.25
2024-02-19T16:34:28.057Z,-3.11
2024-02-19T16:36:55.708Z,-3.28
2024-02-19T16:39:24.525Z,-3.18
2024-02-19T16:41:52.388Z,-3.53
2024-02-19T16:44:30.728Z,-3.53
2024-02-19T16:46:59.289Z,-3.30
2024-02-19T16:49:27.142Z,-3.35
2024-02-19T16:52:05.309Z,-3.20
2024-02-19T16:55:20.378Z,-3.17
2024-02-19T16:57:49.924Z,-3.59
2024-02-19T17:04:30.530Z,-3.49
2024-02-19T17:07:03.663Z,-3.39
2024-02-19T17:09:33.260Z,-3.24
2024-02-19T17:12:01.995Z,-3.20
2024-02-19T17:14:30.836Z,-3.02
2024-02-19T17:17:01.982Z,-3.10
2024-02-19T17:20:03.660Z,-3.06
2024-02-19T17:22:33.678Z,-3.37
2024-02-19T17:32:00.585Z,-3.05
2024-02-19T17:34:31.276Z,-3.00
2024-02-19T17:37:30.966Z,-2.99
2024-02-19T17:40:35.262Z,-3.21
2024-02-19T17:43:08.508Z,-3.19
2024-02-19T17:45:39.721Z,-3.02
2024-02-19T17:48:10.066Z,-2.92
2024-02-19T17:54:05.302Z,-3.04
2024-02-19T17:56:32.901Z,-3.19
2024-02-19T17:59:01.201Z,-3.21
2024-02-19T18:05:17.084Z,-2.91
2024-02-19T18:07:48.661Z,-3.33
2024-02-19T18:10:38.037Z,-3.23
2024-02-19T18:13:10.461Z,-3.36
2024-02-19T18:15:40.381Z,-3.42
2024-02-19T18:18:17.327Z,-3.75
2024-02-19T18:20:49.785Z,-3.53
2024-02-19T18:23:17.525Z,-3.53
2024-02-19T18:26:36.452Z,-3.16
2024-02-19T18:29:05.335Z,-3.29
2024-02-19T18:31:40.224Z,-3.24
2024-02-19T18:34:08.134Z,-3.50
2024-02-19T18:36:35.902Z,-3.45
2024-02-19T18:39:05.775Z,-3.58
2024-02-19T18:41:33.593Z,-3.72
2024-02-19T18:44:06.562Z,-3.81
2024-02-19T18:46:34.523Z,-3.97
2024-02-19T18:49:02.767Z,-3.68
2024-02-19T18:51:32.271Z,-3.78
2024-02-19T18:54:04.192Z,-3.77
2024-02-19T18:56:31.883Z,-3.52
2024-02-19T19:02:41.270Z,-3.27
2024-02-19T19:08:39.011Z,-3.36
2024-02-19T19:11:14.022Z,-3.27
2024-02-19T19:13:42.604Z,-3.26
2024-02-19T19:16:39.414Z,-3.29
2024-02-19T19:19:07.206Z,-3.91
2024-02-19T19:21:35.428Z,-4.09
2024-02-19T19:24:07.785Z,-3.94
2024-02-19T19:26:38.180Z,-3.77
2024-02-19T19:29:10.217Z,-3.84
2024-02-19T19:31:44.920Z,-3.71
2024-02-19T19:34:27.960Z,-3.67
2024-02-19T19:37:03.834Z,-3.65
2024-02-19T19:39:31.833Z,-3.68
2024-02-19T19:41:59.274Z,-3.61
2024-02-19T19:44:29.610Z,-3.66
2024-02-19T19:46:58.441Z,-3.63
2024-02-19T19:49:29.164Z,-3.71
2024-02-19T19:51:57.361Z,-3.69
2024-02-19T19:54:25.061Z,-3.57
2024-02-19T19:56:52.580Z,-3.33
2024-02-19T19:59:21.899Z,-3.21
2024-02-19T20:01:50.445Z,-2.96
2024-02-19T20:04:18.037Z,-2.84
2024-02-19T20:06:45.691Z,-2.94
2024-02-19T20:09:13.081Z,-3.16
2024-02-19T20:11:43.363Z,-3.33
2024-02-19T20:14:11.324Z,-3.20
2024-02-19T20:16:42.159Z,-2.97
2024-02-19T20:19:12.020Z,-3.18
2024-02-19T20:21:40.347Z,-2.95
2024-02-19T20:24:07.698Z,-2.95
2024-02-19T20:26:38.972Z,-3.15
2024-02-19T20:29:08.156Z,-3.22
2024-02-19T20:31:35.602Z,-3.02
2024-02-19T20:34:03.380Z,-2.97
2024-02-19T20:36:35.891Z,-3.22
2024-02-19T20:39:05.050Z,-2.95
2024-02-19T20:41:33.301Z,-2.92
2024-02-19T20:44:01.879Z,-3.05
2024-02-19T20:46:34.861Z,-3.09
2024-02-19T20:49:02.869Z,-3.00
2024-02-19T20:51:30.408Z,-2.75
2024-02-19T20:53:57.794Z,-2.63
2024-02-19T20:56:25.399Z,-2.66
2024-02-19T20:58:53.513Z,-2.62
2024-02-19T21:01:21.026Z,-2.71
2024-02-19T21:06:16.668Z,-2.68
2024-02-19T21:08:46.881Z,-2.77
2024-02-19T21:11:16.664Z,-3.05
2024-02-19T21:13:44.044Z,-2.98
2024-02-19T21:16:12.207Z,-3.01
2024-02-19T21:18:46.998Z,-3.08
2024-02-19T21:21:49.067Z,-3.20
2024-02-19T21:24:19.254Z,-3.01
2024-02-19T21:26:46.540Z,-2.86
2024-02-19T21:29:14.368Z,-2.56
2024-02-19T21:31:41.779Z,-2.52
2024-02-19T21:34:11.618Z,-2.35
2024-02-19T21:36:40.470Z,-2.68
2024-02-19T21:39:26.503Z,-2.76
2024-02-19T21:41:54.034Z,-2.59
2024-02-19T21:44:52.745Z,-2.45
2024-02-19T21:47:31.371Z,-2.79
2024-02-19T21:50:11.446Z,-2.97
2024-02-19T21:52:39.475Z,-2.98
2024-02-19T21:55:07.961Z,-2.78
2024-02-19T21:57:40.019Z,-2.39
2024-02-19T22:00:09.545Z,-2.39
2024-02-19T22:02:37.551Z,-2.90
2024-02-19T22:08:30.577Z,-3.18
2024-02-19T22:10:57.951Z,-2.96
2024-02-19T22:13:25.437Z,-2.81
2024-02-19T22:15:55.633Z,-3.12
2024-02-19T22:18:25.870Z,-3.29
2024-02-19T22:20:53.423Z,-3.60
2024-02-19T22:23:22.834Z,-3.59
2024-02-19T22:25:58.477Z,-3.92
2024-02-19T22:28:26.080Z,-4.13
2024-02-19T22:30:53.511Z,-4.22
2024-02-19T22:33:20.919Z,-4.24
2024-02-19T22:35:49.221Z,-4.23
2024-02-19T22:38:16.572Z,-3.93
2024-02-19T22:40:47.873Z,-3.89
2024-02-19T22:43:15.427Z,-3.76
2024-02-19T22:45:46.043Z,-4.17
2024-02-19T22:48:13.700Z,-4.28
2024-02-19T22:50:42.034Z,-4.17
2024-02-19T22:53:10.101Z,-4.44
2024-02-19T22:59:21.698Z,-4.69
2024-02-19T23:02:18.852Z,-4.37
2024-02-19T23:05:19.005Z,-4.35
2024-02-19T23:07:46.604Z,-4.45
2024-02-19T23:10:14.534Z,-4.32
2024-02-19T23:12:42.403Z,-4.33
2024-02-19T23:15:10.237Z,-4.63
2024-02-19T23:17:41.125Z,-4.82
2024-02-19T23:20:12.964Z,-4.88
2024-02-19T23:26:25.252Z,-4.73
2024-02-19T23:28:52.674Z,-4.71
2024-02-19T23:31:20.266Z,-4.72
2024-02-19T23:34:10.564Z,-4.73
2024-02-19T23:36:42.166Z,-4.60
2024-02-19T23:39:10.544Z,-4.75
2024-02-19T23:41:38.128Z,-4.55
2024-02-19T23:44:05.744Z,-4.68
2024-02-19T23:46:36.246Z,-4.50
2024-02-19T23:49:03.857Z,-4.55
2024-02-19T23:51:31.310Z,-4.64
2024-02-19T23:53:59.488Z,-4.59
2024-02-19T23:56:26.956Z,-4.81
2024-02-19T23:58:54.462Z,-4.66
